Agios Georgios — 5BLQ3 — position and weather

sailwx.info

Track history (hours):
 
Tides and Currents Weather Stations Pressure Air Temp Water Temp Dewpoint Dewpoint Depression Visibility Wind Speed Wind Dir Waves Ship Positions

Agios Georgios

Last reported at 2017-Sep-10 21:00 UTC. Time now 2017-Nov-18 17:53 UTC.
Position N 35°11' E 032°34'.
Warning: this ship's position is months out of date.

Length 14 m.

Type: Fishing. MMSI: 212470000.

Date/timePositionNaut miles runAvg speedWind from/ knotsBaromVisibWave heightAir tempDewpointWater temp
2017-Sep-10 21:00N 35°11' E 032°34'1 0.3
2017-Sep-10 16:36N 35°11' E 032°33'1 6.0
2017-Sep-10 16:28N 35°11' E 032°34'  
2017-Sep-04 22:17N 35°11' E 032°33'20 1.9
2017-Sep-04 11:47N 34°54' E 032°19'1 4.8
2017-Sep-04 11:30N 34°54' E 032°17'3 6.5
2017-Sep-04 11:00N 34°54' E 032°13'3 6.6
2017-Sep-04 10:30N 34°54' E 032°09'3 6.6
2017-Sep-04 10:00N 34°54' E 032°05'6 3.2
2017-Sep-04 08:08N 34°60' E 032°05'1 4.5
2017-Sep-04 07:59N 35°00' E 032°05'13 3.4
2017-Sep-04 04:11N 35°13' E 032°05'1 0.2
2017-Sep-04 01:00N 35°14' E 032°05'  
Track history (hours):
 
Tides and Currents Weather Stations Pressure Air Temp Water Temp Dewpoint Dewpoint Depression Visibility Wind Speed Wind Dir Waves Ship Positions

Agios Georgios

Last reported at 2017-Sep-10 21:00 UTC. Time now 2017-Nov-18 17:53 UTC.
Position N 35°11' E 032°34'.
Warning: this ship's position is months out of date.

Length 14 m.

Type: Fishing. MMSI: 212470000.

Date/timePositionNaut miles runAvg speedWind from/ knotsBaromVisibWave heightAir tempDewpointWater temp
2017-Sep-10 21:00N 35°11' E 032°34'1 0.3
2017-Sep-10 16:36N 35°11' E 032°33'1 6.0
2017-Sep-10 16:28N 35°11' E 032°34'  
2017-Sep-04 22:17N 35°11' E 032°33'20 1.9
2017-Sep-04 11:47N 34°54' E 032°19'1 4.8
2017-Sep-04 11:30N 34°54' E 032°17'3 6.5
2017-Sep-04 11:00N 34°54' E 032°13'3 6.6
2017-Sep-04 10:30N 34°54' E 032°09'3 6.6
2017-Sep-04 10:00N 34°54' E 032°05'6 3.2
2017-Sep-04 08:08N 34°60' E 032°05'1 4.5
2017-Sep-04 07:59N 35°00' E 032°05'13 3.4
2017-Sep-04 04:11N 35°13' E 032°05'1 0.2
2017-Sep-04 01:00N 35°14' E 032°05'  

Dump ship's entire track history